createdAt,value
2018-03-30T00:04:11.939Z,5.10
2018-03-30T00:09:03.429Z,4.13
2018-03-30T00:13:55.562Z,4.33
2018-03-30T00:18:48.463Z,4.40
2018-03-30T00:23:39.874Z,4.10
2018-03-30T00:28:32.006Z,4.10
2018-03-30T00:33:24.215Z,3.97
2018-03-30T00:38:15.627Z,4.00
2018-03-30T00:43:07.141Z,4.17
2018-03-30T00:47:59.298Z,3.87
2018-03-30T00:52:52.087Z,4.50
2018-03-30T00:57:43.503Z,4.40
2018-03-30T01:02:35.002Z,4.67
2018-03-30T01:07:27.570Z,4.50
2018-03-30T01:12:19.703Z,4.30
2018-03-30T01:17:11.835Z,4.47
2018-03-30T01:22:04.067Z,4.33
2018-03-30T01:26:55.464Z,5.30
2018-03-30T01:31:46.906Z,4.53
2018-03-30T01:36:38.329Z,4.47
2018-03-30T01:41:29.713Z,4.30
2018-03-30T01:46:21.100Z,4.27
2018-03-30T01:51:12.463Z,4.10
2018-03-30T01:56:03.858Z,4.00
2018-03-30T02:00:55.243Z,4.47
2018-03-30T02:05:46.674Z,4.00
2018-03-30T02:10:38.062Z,4.30
2018-03-30T02:15:29.512Z,4.27
2018-03-30T02:20:20.943Z,4.53
2018-03-30T02:25:12.413Z,4.07
2018-03-30T02:30:04.577Z,4.10
2018-03-30T02:34:56.666Z,4.60
2018-03-30T02:39:48.087Z,4.07
2018-03-30T02:44:39.490Z,4.33
2018-03-30T02:49:31.639Z,4.17
2018-03-30T02:54:23.771Z,3.70
2018-03-30T02:59:15.889Z,4.00
2018-03-30T03:04:07.364Z,4.40
2018-03-30T03:08:59.478Z,3.73
2018-03-30T03:13:50.826Z,3.80
2018-03-30T03:18:42.997Z,4.00
2018-03-30T03:23:35.122Z,3.60
2018-03-30T03:28:26.557Z,4.00
2018-03-30T03:33:18.706Z,4.30
2018-03-30T03:38:10.885Z,3.93
2018-03-30T03:43:02.284Z,4.17
2018-03-30T03:47:54.410Z,4.33
2018-03-30T03:52:46.507Z,4.30
2018-03-30T03:57:37.872Z,4.30
2018-03-30T04:02:29.239Z,4.43
2018-03-30T04:07:20.626Z,4.83
2018-03-30T04:12:11.990Z,4.13
2018-03-30T04:17:04.088Z,4.30
2018-03-30T04:21:55.464Z,4.70
2018-03-30T04:26:46.852Z,4.40
2018-03-30T04:31:38.223Z,4.80
2018-03-30T04:36:29.667Z,4.73
2018-03-30T04:41:21.885Z,4.80
2018-03-30T04:46:13.297Z,4.73
2018-03-30T04:51:04.721Z,4.60
2018-03-30T04:55:56.097Z,4.77
2018-03-30T05:00:47.487Z,4.20
2018-03-30T05:05:38.866Z,4.63
2018-03-30T05:10:31.831Z,4.70
2018-03-30T05:15:23.976Z,4.70
2018-03-30T05:20:16.130Z,4.97
2018-03-30T05:25:07.577Z,5.30
2018-03-30T05:29:58.949Z,4.50
2018-03-30T05:34:50.332Z,4.80
2018-03-30T05:39:42.531Z,3.87
2018-03-30T05:44:33.951Z,4.60
2018-03-30T05:49:25.414Z,4.27
2018-03-30T05:54:16.815Z,5.00
2018-03-30T05:59:08.977Z,5.07
2018-03-30T06:04:01.182Z,4.77
2018-03-30T06:08:52.612Z,5.07
2018-03-30T06:13:44.744Z,4.93
2018-03-30T06:18:36.136Z,4.80
2018-03-30T06:23:27.542Z,5.00
2018-03-30T06:28:19.627Z,5.00
2018-03-30T06:33:11.030Z,4.70
2018-03-30T06:38:02.402Z,5.37
2018-03-30T06:42:53.787Z,5.10
2018-03-30T06:47:45.788Z,4.67
2018-03-30T06:52:37.175Z,4.97
2018-03-30T06:57:28.582Z,5.40
2018-03-30T07:02:20.689Z,5.27
2018-03-30T07:07:12.046Z,5.23
2018-03-30T07:12:03.514Z,5.43
2018-03-30T07:16:54.901Z,5.37
2018-03-30T07:21:46.308Z,5.40
2018-03-30T07:26:37.698Z,5.13
2018-03-30T07:31:29.087Z,5.30
2018-03-30T07:36:20.474Z,5.23
2018-03-30T07:41:11.879Z,5.03
2018-03-30T07:46:04.029Z,4.80
2018-03-30T07:50:56.241Z,4.80
2018-03-30T07:55:47.635Z,5.17
2018-03-30T08:00:39.266Z,5.57
2018-03-30T08:05:30.669Z,5.20
2018-03-30T08:10:22.812Z,5.20
2018-03-30T08:15:14.208Z,5.00
2018-03-30T08:20:05.666Z,4.70
2018-03-30T08:24:57.056Z,5.07
2018-03-30T08:29:48.492Z,4.50
2018-03-30T08:34:39.884Z,4.43
2018-03-30T08:39:32.020Z,4.97
2018-03-30T08:44:24.233Z,4.90
2018-03-30T08:49:15.816Z,5.23
2018-03-30T08:54:07.963Z,5.20
2018-03-30T08:59:00.088Z,5.23
2018-03-30T09:03:51.496Z,5.27
2018-03-30T09:08:42.863Z,5.80
2018-03-30T09:13:35.021Z,5.90
2018-03-30T09:18:27.217Z,4.83
2018-03-30T09:23:18.683Z,4.83
2018-03-30T09:28:10.079Z,5.30
2018-03-30T09:33:01.557Z,4.30
2018-03-30T09:37:53.710Z,3.67
2018-03-30T09:42:45.859Z,3.30
2018-03-30T09:47:37.979Z,3.83
2018-03-30T09:52:29.508Z,3.50
2018-03-30T09:57:20.864Z,4.47
2018-03-30T10:02:12.299Z,4.10
2018-03-30T10:07:04.459Z,3.90
2018-03-30T10:11:56.594Z,4.40
2018-03-30T10:16:47.981Z,3.90
2018-03-30T10:21:39.410Z,3.27
2018-03-30T10:26:30.808Z,2.50
2018-03-30T10:31:22.308Z,2.40
2018-03-30T10:36:13.733Z,2.60
2018-03-30T10:41:05.888Z,3.00
2018-03-30T10:45:57.301Z,3.40
2018-03-30T10:50:48.677Z,2.77
2018-03-30T10:55:40.951Z,3.10
2018-03-30T11:00:32.321Z,2.73
2018-03-30T11:05:23.765Z,2.00
2018-03-30T11:10:15.125Z,2.10
2018-03-30T11:15:07.263Z,2.17
2018-03-30T11:19:59.406Z,2.40
2018-03-30T11:24:52.167Z,2.40
2018-03-30T11:29:44.366Z,2.90
2018-03-30T11:34:35.781Z,2.50
2018-03-30T11:39:27.173Z,2.60
2018-03-30T11:44:18.553Z,2.00
2018-03-30T11:49:09.985Z,1.80
2018-03-30T11:54:01.376Z,2.13
2018-03-30T11:58:53.534Z,1.70
2018-03-30T12:03:45.798Z,2.10
2018-03-30T12:08:37.081Z,2.00
2018-03-30T12:13:28.570Z,2.33
2018-03-30T12:18:19.970Z,1.50
2018-03-30T12:23:12.169Z,2.00
2018-03-30T12:28:03.564Z,1.97
2018-03-30T12:32:55.943Z,1.97
2018-03-30T12:37:47.337Z,1.87
2018-03-30T12:42:39.547Z,2.30
2018-03-30T12:47:31.586Z,2.20
2018-03-30T12:52:22.999Z,1.90
2018-03-30T12:57:14.367Z,1.90
2018-03-30T13:02:05.751Z,2.03
2018-03-30T13:06:57.138Z,2.00
2018-03-30T13:11:48.535Z,1.93
2018-03-30T13:16:39.933Z,2.23
2018-03-30T13:21:32.209Z,2.30
2018-03-30T13:26:23.588Z,2.10
2018-03-30T13:31:14.965Z,1.90
2018-03-30T13:36:07.321Z,2.40
2018-03-30T13:40:58.745Z,2.10
2018-03-30T13:45:50.119Z,2.50
2018-03-30T13:50:59.141Z,2.27
2018-03-30T13:55:51.605Z,2.23
2018-03-30T14:00:48.006Z,2.40
2018-03-30T14:05:41.223Z,2.50
2018-03-30T14:10:47.520Z,2.27
2018-03-30T14:15:46.077Z,2.30
2018-03-30T14:20:41.627Z,2.03
2018-03-30T14:25:38.924Z,2.10
2018-03-30T14:30:31.144Z,2.30
2018-03-30T14:35:30.418Z,2.27
2018-03-30T14:40:22.581Z,2.20
2018-03-30T14:45:29.740Z,2.03
2018-03-30T14:50:21.858Z,2.40
2018-03-30T14:55:16.101Z,1.70
2018-03-30T15:00:13.923Z,2.00
2018-03-30T15:11:00.067Z,1.80
2018-03-30T15:21:30.354Z,1.30
2018-03-30T15:26:27.568Z,1.40
2018-03-30T15:36:47.761Z,1.40
2018-03-30T15:41:43.782Z,1.73
2018-03-30T15:46:40.171Z,1.93
2018-03-30T15:51:48.261Z,2.00
2018-03-30T15:56:40.989Z,1.90
2018-03-30T16:01:33.253Z,2.17
2018-03-30T16:06:25.372Z,2.10
2018-03-30T16:11:23.935Z,2.03
2018-03-30T16:16:15.428Z,2.17
2018-03-30T16:21:07.971Z,2.13
2018-03-30T16:25:59.901Z,2.70
2018-03-30T16:30:51.176Z,3.03
2018-03-30T16:35:42.369Z,2.70
2018-03-30T16:40:33.526Z,3.00
2018-03-30T16:45:24.708Z,3.20
2018-03-30T16:50:15.916Z,2.97
2018-03-30T16:55:07.215Z,3.00
2018-03-30T16:59:58.377Z,2.97
2018-03-30T17:04:49.626Z,2.70
2018-03-30T17:09:41.586Z,2.77
2018-03-30T17:14:34.382Z,3.50
2018-03-30T17:19:25.598Z,3.40
2018-03-30T17:24:16.799Z,3.37
2018-03-30T17:29:08.709Z,2.77
2018-03-30T17:33:59.974Z,3.50
2018-03-30T17:38:51.904Z,3.57
2018-03-30T17:43:43.828Z,3.23
2018-03-30T17:48:35.004Z,3.40
2018-03-30T17:53:26.264Z,3.60
2018-03-30T17:58:17.440Z,3.50
2018-03-30T18:03:09.421Z,3.47
2018-03-30T18:08:00.671Z,3.33
2018-03-30T18:12:51.883Z,3.90
2018-03-30T18:17:43.066Z,3.90
2018-03-30T18:22:35.735Z,3.73
2018-03-30T18:27:26.891Z,2.70
2018-03-30T18:32:18.098Z,2.07
2018-03-30T18:37:09.284Z,1.93
2018-03-30T18:42:00.483Z,1.63
2018-03-30T18:46:51.670Z,1.70
2018-03-30T18:51:43.673Z,1.40
2018-03-30T18:56:34.860Z,1.23
2018-03-30T19:01:26.087Z,1.30
2018-03-30T19:06:17.281Z,1.20
2018-03-30T19:11:09.260Z,1.37
2018-03-30T19:16:00.500Z,0.90
2018-03-30T19:20:51.714Z,1.20
2018-03-30T19:25:42.929Z,0.90
2018-03-30T19:30:34.115Z,0.90
2018-03-30T19:35:26.060Z,0.87
2018-03-30T19:40:17.473Z,0.90
2018-03-30T19:45:08.683Z,0.80
2018-03-30T19:49:59.933Z,1.07
2018-03-30T19:54:52.603Z,1.33
2018-03-30T19:59:43.790Z,1.40
2018-03-30T20:04:34.994Z,1.33
2018-03-30T20:09:26.165Z,1.90
2018-03-30T20:14:17.375Z,1.60
2018-03-30T20:19:08.574Z,1.97
2018-03-30T20:24:00.439Z,1.80
2018-03-30T20:28:51.618Z,2.00
2018-03-30T20:33:43.629Z,2.00
2018-03-30T20:38:34.810Z,2.00
2018-03-30T20:43:26.155Z,2.03
2018-03-30T20:48:17.345Z,1.60
2018-03-30T20:53:09.211Z,2.03
2018-03-30T20:58:00.437Z,2.00
2018-03-30T21:02:51.670Z,2.20
2018-03-30T21:07:42.846Z,2.37
2018-03-30T21:12:34.609Z,2.20
2018-03-30T21:17:26.531Z,2.40
2018-03-30T21:22:17.736Z,2.20
2018-03-30T21:27:08.991Z,1.93
2018-03-30T21:32:00.980Z,2.03
2018-03-30T21:36:52.205Z,2.10
2018-03-30T21:41:43.430Z,2.10
2018-03-30T21:46:34.737Z,1.70
2018-03-30T21:51:25.937Z,2.00
2018-03-30T21:56:17.729Z,1.70
2018-03-30T22:01:08.955Z,1.80
2018-03-30T22:06:00.157Z,2.07
2018-03-30T22:10:51.337Z,1.67
2018-03-30T22:15:43.897Z,1.90
2018-03-30T22:20:35.153Z,1.70
2018-03-30T22:25:27.128Z,1.80
2018-03-30T22:30:18.291Z,1.97
2018-03-30T22:35:10.140Z,1.70
2018-03-30T22:40:02.070Z,2.00
2018-03-30T22:44:53.236Z,2.10
2018-03-30T22:49:45.224Z,2.70
2018-03-30T22:54:36.395Z,2.20
2018-03-30T22:59:27.619Z,2.03
2018-03-30T23:04:19.530Z,2.40
2018-03-30T23:09:10.707Z,2.43
2018-03-30T23:14:02.634Z,2.80
2018-03-30T23:18:53.830Z,2.57
2018-03-30T23:23:45.555Z,2.60
2018-03-30T23:28:36.749Z,2.70
2018-03-30T23:33:27.970Z,2.50
2018-03-30T23:38:19.166Z,2.93
2018-03-30T23:43:11.136Z,2.80
2018-03-30T23:48:03.081Z,2.90
2018-03-30T23:52:55.028Z,2.93
2018-03-30T23:57:46.931Z,3.00
